Terminal Aerodrome Forecast
Issued by NWS Topeka, KS

Home | Current Version | Previous Version | Text Only | Print | Product List | Glossary On
Versions: 1 2 3 4 5 6 7 8 9 10 11 12 13 14 15 16 17 18 19
000
FTUS43 KTOP 192320
TAFTOP
TAF
KTOP 192320Z 2000/2024 15006KT P6SM OVC011
     FM200100 11004KT 5SM -DZ BR OVC008
     FM200500 11003KT 1/4SM FG OVC002
     FM201500 14006KT 4SM BR OVC003=

USA.gov is the U.S. government's official web portal to all federal, state and local government web resources and services.